sensor_id;sensor_type;location;lat;lon;timestamp;pressure;altitude;pressure_sealevel;temperature;humidity
9423;BME280;65863;49.506;10.400;2023-02-17T00:00:54;98762.69;;;6.74;77.13
9423;BME280;65863;49.506;10.400;2023-02-17T00:03:38;98742.88;;;6.66;76.30
9423;BME280;65863;49.506;10.400;2023-02-17T00:06:25;98784.47;;;6.98;75.72
9423;BME280;65863;49.506;10.400;2023-02-17T00:09:10;98767.97;;;6.88;75.82
9423;BME280;65863;49.506;10.400;2023-02-17T00:11:54;98751.25;;;6.83;75.03
9423;BME280;65863;49.506;10.400;2023-02-17T00:14:38;98740.59;;;6.76;74.84
9423;BME280;65863;49.506;10.400;2023-02-17T00:17:23;98762.38;;;7.00;74.68
9423;BME280;65863;49.506;10.400;2023-02-17T00:20:07;98744.88;;;6.94;74.47
9423;BME280;65863;49.506;10.400;2023-02-17T00:22:51;98743.38;;;6.93;73.73
9423;BME280;65863;49.506;10.400;2023-02-17T00:25:38;98762.63;;;7.13;73.69
9423;BME280;65863;49.506;10.400;2023-02-17T00:28:22;98766.91;;;7.09;73.55
9423;BME280;65863;49.506;10.400;2023-02-17T00:31:09;98742.09;;;6.88;73.42
9423;BME280;65863;49.506;10.400;2023-02-17T00:33:54;98765.16;;;7.11;73.67
9423;BME280;65863;49.506;10.400;2023-02-17T00:36:39;98694.72;;;6.60;73.17
9423;BME280;65863;49.506;10.400;2023-02-17T00:39:23;98728.16;;;6.82;73.35
9423;BME280;65863;49.506;10.400;2023-02-17T00:42:07;98738.28;;;6.91;73.30
9423;BME280;65863;49.506;10.400;2023-02-17T00:44:51;98742.63;;;6.81;73.30
9423;BME280;65863;49.506;10.400;2023-02-17T00:47:37;98693.19;;;6.53;73.37
9423;BME280;65863;49.506;10.400;2023-02-17T00:50:21;98759.88;;;6.91;73.11
9423;BME280;65863;49.506;10.400;2023-02-17T00:53:05;98744.63;;;6.86;73.30
9423;BME280;65863;49.506;10.400;2023-02-17T00:55:50;98718.78;;;6.68;73.59
9423;BME280;65863;49.506;10.400;2023-02-17T00:58:35;98760.84;;;6.93;73.42
9423;BME280;65863;49.506;10.400;2023-02-17T01:01:19;98749.47;;;6.85;73.57
9423;BME280;65863;49.506;10.400;2023-02-17T01:04:04;98693.47;;;6.44;73.35
9423;BME280;65863;49.506;10.400;2023-02-17T01:06:48;98736.03;;;6.72;73.71
9423;BME280;65863;49.506;10.400;2023-02-17T01:09:32;98728.44;;;6.67;73.63
9423;BME280;65863;49.506;10.400;2023-02-17T01:12:16;98758.34;;;6.89;73.64
9423;BME280;65863;49.506;10.400;2023-02-17T01:15:00;98751.72;;;6.93;73.46
9423;BME280;65863;49.506;10.400;2023-02-17T01:17:45;98698.25;;;6.60;73.62
9423;BME280;65863;49.506;10.400;2023-02-17T01:20:29;98697.22;;;6.63;73.44
9423;BME280;65863;49.506;10.400;2023-02-17T01:23:14;98740.84;;;6.95;73.93
9423;BME280;65863;49.506;10.400;2023-02-17T01:25:59;98740.84;;;6.95;74.05
9423;BME280;65863;49.506;10.400;2023-02-17T01:28:43;98728.16;;;6.94;73.96
9423;BME280;65863;49.506;10.400;2023-02-17T01:31:27;98753.72;;;7.20;73.41
9423;BME280;65863;49.506;10.400;2023-02-17T01:34:11;98753.44;;;7.18;73.83
9423;BME280;65863;49.506;10.400;2023-02-17T01:36:56;98718.50;;;7.00;73.98
9423;BME280;65863;49.506;10.400;2023-02-17T01:39:39;98742.06;;;7.11;74.08
9423;BME280;65863;49.506;10.400;2023-02-17T01:42:24;98717.19;;;7.01;74.31
9423;BME280;65863;49.506;10.400;2023-02-17T01:48:11;98738.00;;;7.17;75.21
9423;BME280;65863;49.506;10.400;2023-02-17T01:51:06;98697.94;;;6.92;75.67
9423;BME280;65863;49.506;10.400;2023-02-17T01:53:58;98706.31;;;6.98;76.25
9423;BME280;65863;49.506;10.400;2023-02-17T01:56:45;98718.72;;;7.08;77.06
9423;BME280;65863;49.506;10.400;2023-02-17T01:59:31;98695.41;;;6.88;77.43
9423;BME280;65863;49.506;10.400;2023-02-17T02:02:16;98693.16;;;6.81;77.48
9423;BME280;65863;49.506;10.400;2023-02-17T02:05:01;98699.94;;;6.97;78.64
9423;BME280;65863;49.506;10.400;2023-02-17T02:07:47;98694.16;;;6.89;78.76
9423;BME280;65863;49.506;10.400;2023-02-17T02:10:32;98636.38;;;6.50;79.31
9423;BME280;65863;49.506;10.400;2023-02-17T02:13:16;98683.00;;;6.84;79.48
9423;BME280;65863;49.506;10.400;2023-02-17T02:16:13;98652.09;;;6.65;79.73
9423;BME280;65863;49.506;10.400;2023-02-17T02:19:34;98667.28;;;6.75;80.11
9423;BME280;65863;49.506;10.400;2023-02-17T02:35:02;98660.06;;;7.14;79.79
9423;BME280;65863;49.506;10.400;2023-02-17T02:37:55;98639.81;;;7.02;79.84
9423;BME280;65863;49.506;10.400;2023-02-17T02:40:46;98636.81;;;6.88;79.72
9423;BME280;65863;49.506;10.400;2023-02-17T02:43:32;98609.72;;;6.78;80.11
9423;BME280;65863;49.506;10.400;2023-02-17T02:46:16;98660.06;;;7.14;79.71
9423;BME280;65863;49.506;10.400;2023-02-17T02:49:01;98661.59;;;7.09;79.50
9423;BME280;65863;49.506;10.400;2023-02-17T02:52:07;98650.94;;;7.13;79.99
9423;BME280;65863;49.506;10.400;2023-02-17T02:55:03;98659.31;;;7.13;79.91
9423;BME280;65863;49.506;10.400;2023-02-17T02:58:05;98624.84;;;6.99;80.26
9423;BME280;65863;49.506;10.400;2023-02-17T03:00:57;98650.94;;;7.13;80.37
9423;BME280;65863;49.506;10.400;2023-02-17T03:03:51;98645.56;;;7.21;80.19
9423;BME280;65863;49.506;10.400;2023-02-17T03:06:48;98644.97;;;7.34;80.52
9423;BME280;65863;49.506;10.400;2023-02-17T03:09:35;98645.97;;;7.42;80.57
9423;BME280;65863;49.506;10.400;2023-02-17T03:12:20;98628.47;;;7.36;80.02
9423;BME280;65863;49.506;10.400;2023-02-17T03:15:15;98605.38;;;7.35;80.10
9423;BME280;65863;49.506;10.400;2023-02-17T03:18:03;98597.19;;;7.43;80.12
9423;BME280;65863;49.506;10.400;2023-02-17T03:21:02;98628.97;;;7.76;80.08
9423;BME280;65863;49.506;10.400;2023-02-17T03:23:48;98600.41;;;7.58;79.66
9423;BME280;65863;49.506;10.400;2023-02-17T03:26:32;98615.88;;;7.59;79.18
9423;BME280;65863;49.506;10.400;2023-02-17T03:29:16;98637.06;;;7.85;78.83
9423;BME280;65863;49.506;10.400;2023-02-17T03:32:00;98601.34;;;7.67;78.50
9423;BME280;65863;49.506;10.400;2023-02-17T03:34:45;98602.31;;;7.75;77.93
9423;BME280;65863;49.506;10.400;2023-02-17T03:37:29;98619.47;;;7.90;77.74
9423;BME280;65863;49.506;10.400;2023-02-17T03:40:13;98619.47;;;7.90;77.40
9423;BME280;65863;49.506;10.400;2023-02-17T03:42:57;98634.06;;;8.08;76.84
9423;BME280;65863;49.506;10.400;2023-02-17T03:45:41;98620.44;;;7.99;76.74
9423;BME280;65863;49.506;10.400;2023-02-17T03:48:25;98629.19;;;8.14;76.11
9423;BME280;65863;49.506;10.400;2023-02-17T03:51:11;98629.56;;;8.30;75.60
9423;BME280;65863;49.506;10.400;2023-02-17T03:53:55;98598.75;;;8.05;74.66
9423;BME280;65863;49.506;10.400;2023-02-17T03:56:39;98644.72;;;8.40;74.29
9423;BME280;65863;49.506;10.400;2023-02-17T03:59:23;98644.13;;;8.53;74.01
9423;BME280;65863;49.506;10.400;2023-02-17T04:02:07;98648.38;;;8.59;73.55
9423;BME280;65863;49.506;10.400;2023-02-17T04:04:51;98608.38;;;8.40;73.03
9423;BME280;65863;49.506;10.400;2023-02-17T04:07:35;98628.03;;;8.59;73.11
9423;BME280;65863;49.506;10.400;2023-02-17T04:10:19;98633.81;;;8.67;73.06
9423;BME280;65863;49.506;10.400;2023-02-17T04:13:03;98615.28;;;8.64;72.99
9423;BME280;65863;49.506;10.400;2023-02-17T04:15:48;98618.66;;;8.56;73.42
9423;BME280;65863;49.506;10.400;2023-02-17T04:18:33;98616.84;;;8.59;73.27
9423;BME280;65863;49.506;10.400;2023-02-17T04:21:17;98603.84;;;8.61;73.11
9423;BME280;65863;49.506;10.400;2023-02-17T04:24:02;98613.00;;;8.62;73.09
9423;BME280;65863;49.506;10.400;2023-02-17T04:26:46;98629.09;;;8.81;73.14
9423;BME280;65863;49.506;10.400;2023-02-17T04:29:31;98601.63;;;8.54;72.79
9423;BME280;65863;49.506;10.400;2023-02-17T04:32:15;98625.88;;;8.71;72.96
9423;BME280;65863;49.506;10.400;2023-02-17T04:34:59;98611.47;;;8.61;72.83
9423;BME280;65863;49.506;10.400;2023-02-17T04:37:43;98616.56;;;8.63;72.97
9423;BME280;65863;49.506;10.400;2023-02-17T04:40:27;98636.78;;;8.74;73.15
9423;BME280;65863;49.506;10.400;2023-02-17T04:43:11;98596.03;;;8.54;73.22
9423;BME280;65863;49.506;10.400;2023-02-17T04:45:56;98614.16;;;8.72;73.00
9423;BME280;65863;49.506;10.400;2023-02-17T04:48:40;98595.56;;;8.50;73.30
9423;BME280;65863;49.506;10.400;2023-02-17T04:51:24;98620.88;;;8.64;73.17
9423;BME280;65863;49.506;10.400;2023-02-17T04:54:08;98610.09;;;8.43;73.06
9423;BME280;65863;49.506;10.400;2023-02-17T04:56:52;98625.06;;;8.51;73.69
9423;BME280;65863;49.506;10.400;2023-02-17T04:59:36;98623.25;;;8.54;73.66
9423;BME280;65863;49.506;10.400;2023-02-17T05:02:20;98625.53;;;8.55;73.53
9423;BME280;65863;49.506;10.400;2023-02-17T05:05:04;98576.88;;;8.09;74.05
9423;BME280;65863;49.506;10.400;2023-02-17T05:07:48;98627.94;;;8.40;74.06
9423;BME280;65863;49.506;10.400;2023-02-17T05:10:33;98643.84;;;8.56;74.73
9423;BME280;65863;49.506;10.400;2023-02-17T05:13:17;98636.19;;;8.57;74.56
9423;BME280;65863;49.506;10.400;2023-02-17T05:16:02;98611.28;;;8.28;74.88
9423;BME280;65863;49.506;10.400;2023-02-17T05:18:46;98621.88;;;8.36;75.34
9423;BME280;65863;49.506;10.400;2023-02-17T05:21:29;98623.16;;;8.35;75.43
9423;BME280;65863;49.506;10.400;2023-02-17T05:24:14;98592.59;;;8.12;75.82
9423;BME280;65863;49.506;10.400;2023-02-17T05:26:58;98649.06;;;8.41;76.10
9423;BME280;65863;49.506;10.400;2023-02-17T05:29:42;98586.88;;;7.99;76.38
9423;BME280;65863;49.506;10.400;2023-02-17T05:32:26;98614.06;;;8.28;76.05
9423;BME280;65863;49.506;10.400;2023-02-17T05:35:10;98609.22;;;8.29;76.27
9423;BME280;65863;49.506;10.400;2023-02-17T05:37:54;98599.09;;;8.26;76.17
9423;BME280;65863;49.506;10.400;2023-02-17T05:40:38;98615.13;;;8.25;76.63
9423;BME280;65863;49.506;10.400;2023-02-17T05:43:22;98641.47;;;8.36;76.50
9423;BME280;65863;49.506;10.400;2023-02-17T05:46:06;98601.13;;;8.25;76.80
9423;BME280;65863;49.506;10.400;2023-02-17T05:48:51;98550.41;;;7.85;76.65
9423;BME280;65863;49.506;10.400;2023-02-17T05:51:35;98610.00;;;8.30;76.74
9423;BME280;65863;49.506;10.400;2023-02-17T05:54:20;98615.16;;;8.50;76.72
9423;BME280;65863;49.506;10.400;2023-02-17T05:57:04;98639.00;;;8.57;76.64
9423;BME280;65863;49.506;10.400;2023-02-17T05:59:48;98602.03;;;8.39;76.46
9423;BME280;65863;49.506;10.400;2023-02-17T06:02:32;98620.03;;;8.44;76.90
9423;BME280;65863;49.506;10.400;2023-02-17T06:05:17;98608.88;;;8.38;77.25
9423;BME280;65863;49.506;10.400;2023-02-17T06:08:01;98616.28;;;8.36;77.50
9423;BME280;65863;49.506;10.400;2023-02-17T06:10:45;98596.34;;;8.20;78.47
9423;BME280;65863;49.506;10.400;2023-02-17T06:13:29;98622.81;;;8.44;79.28
9423;BME280;65863;49.506;10.400;2023-02-17T06:16:13;98579.28;;;7.93;80.29
9423;BME280;65863;49.506;10.400;2023-02-17T06:18:57;98587.69;;;7.93;80.80
9423;BME280;65863;49.506;10.400;2023-02-17T06:21:42;98565.28;;;7.69;81.08
9423;BME280;65863;49.506;10.400;2023-02-17T06:24:26;98635.88;;;8.05;81.85
9423;BME280;65863;49.506;10.400;2023-02-17T06:27:10;98621.56;;;7.84;82.43
9423;BME280;65863;49.506;10.400;2023-02-17T06:29:54;98646.63;;;7.96;82.66
9423;BME280;65863;49.506;10.400;2023-02-17T06:32:38;98620.13;;;7.72;82.80
9423;BME280;65863;49.506;10.400;2023-02-17T06:35:22;98618.13;;;7.67;83.79
9423;BME280;65863;49.506;10.400;2023-02-17T06:38:06;98605.69;;;7.62;84.06
9423;BME280;65863;49.506;10.400;2023-02-17T06:40:50;98627.19;;;7.79;84.63
9423;BME280;65863;49.506;10.400;2023-02-17T06:43:34;98621.38;;;7.71;85.20
9423;BME280;65863;49.506;10.400;2023-02-17T06:46:18;98608.75;;;7.64;85.53
9423;BME280;65863;49.506;10.400;2023-02-17T06:49:02;98602.19;;;7.56;85.47
9423;BME280;65863;49.506;10.400;2023-02-17T06:51:46;98642.13;;;7.87;85.77
9423;BME280;65863;49.506;10.400;2023-02-17T06:54:30;98622.41;;;7.73;85.93
9423;BME280;65863;49.506;10.400;2023-02-17T06:57:15;98636.06;;;7.83;86.00
9423;BME280;65863;49.506;10.400;2023-02-17T06:59:59;98589.47;;;7.61;86.33
9423;BME280;65863;49.506;10.400;2023-02-17T07:02:44;98629.44;;;7.86;86.77
9423;BME280;65863;49.506;10.400;2023-02-17T07:05:28;98605.63;;;7.73;87.00
9423;BME280;65863;49.506;10.400;2023-02-17T07:08:11;98602.88;;;7.68;87.03
9423;BME280;65863;49.506;10.400;2023-02-17T07:10:55;98620.53;;;7.87;87.47
9423;BME280;65863;49.506;10.400;2023-02-17T07:13:40;98628.84;;;7.93;87.84
9423;BME280;65863;49.506;10.400;2023-02-17T07:16:24;98626.28;;;7.95;88.08
9423;BME280;65863;49.506;10.400;2023-02-17T07:19:08;98588.09;;;7.73;88.39
9423;BME280;65863;49.506;10.400;2023-02-17T07:21:52;98631.34;;;7.97;88.67
9423;BME280;65863;49.506;10.400;2023-02-17T07:24:36;98629.38;;;7.91;88.42
9423;BME280;65863;49.506;10.400;2023-02-17T07:27:20;98606.09;;;7.78;88.32
9423;BME280;65863;49.506;10.400;2023-02-17T07:30:05;98644.59;;;7.96;88.42
9423;BME280;65863;49.506;10.400;2023-02-17T07:32:49;98625.06;;;7.90;88.66
9423;BME280;65863;49.506;10.400;2023-02-17T07:35:34;98631.66;;;7.93;88.83
9423;BME280;65863;49.506;10.400;2023-02-17T07:38:18;98581.59;;;7.59;88.77
9423;BME280;65863;49.506;10.400;2023-02-17T07:41:09;98647.25;;;8.13;88.89
9423;BME280;65863;49.506;10.400;2023-02-17T07:43:54;98646.78;;;8.09;88.74
9423;BME280;65863;49.506;10.400;2023-02-17T07:46:38;98655.41;;;8.11;89.02
9423;BME280;65863;49.506;10.400;2023-02-17T07:49:23;98619.78;;;7.87;88.84
9423;BME280;65863;49.506;10.400;2023-02-17T07:52:06;98620.25;;;7.91;88.88
9423;BME280;65863;49.506;10.400;2023-02-17T07:54:50;98653.53;;;8.19;89.23
9423;BME280;65863;49.506;10.400;2023-02-17T07:57:34;98602.09;;;7.73;89.16
9423;BME280;65863;49.506;10.400;2023-02-17T08:00:18;98661.94;;;8.19;89.34
9423;BME280;65863;49.506;10.400;2023-02-17T08:03:03;98624.09;;;7.82;89.11
9423;BME280;65863;49.506;10.400;2023-02-17T08:05:47;98623.94;;;8.05;89.24
9423;BME280;65863;49.506;10.400;2023-02-17T08:08:33;98646.28;;;8.05;89.19
9423;BME280;65863;49.506;10.400;2023-02-17T08:11:36;98649.53;;;8.15;89.62
9423;BME280;65863;49.506;10.400;2023-02-17T08:14:39;98668.47;;;8.27;89.23
9423;BME280;65863;49.506;10.400;2023-02-17T08:17:23;98657.88;;;8.20;89.22
9423;BME280;65863;49.506;10.400;2023-02-17T08:20:08;98643.41;;;8.16;89.09
9423;BME280;65863;49.506;10.400;2023-02-17T08:22:52;98660.53;;;8.37;89.61
9423;BME280;65863;49.506;10.400;2023-02-17T08:25:36;98658.16;;;8.47;89.05
9423;BME280;65863;49.506;10.400;2023-02-17T08:28:21;98631.53;;;8.35;88.83
9423;BME280;65863;49.506;10.400;2023-02-17T08:31:05;98684.53;;;8.57;88.65
9423;BME280;65863;49.506;10.400;2023-02-17T08:33:49;98654.56;;;8.52;88.55
9423;BME280;65863;49.506;10.400;2023-02-17T08:36:34;98647.44;;;8.51;88.22
9423;BME280;65863;49.506;10.400;2023-02-17T08:39:19;98662.84;;;8.64;88.04
9423;BME280;65863;49.506;10.400;2023-02-17T08:42:03;98650.47;;;8.53;87.89
9423;BME280;65863;49.506;10.400;2023-02-17T08:44:48;98625.16;;;8.40;87.61
9423;BME280;65863;49.506;10.400;2023-02-17T08:47:33;98633.88;;;8.61;87.67
9423;BME280;65863;49.506;10.400;2023-02-17T08:50:18;98644.06;;;8.58;87.45
9423;BME280;65863;49.506;10.400;2023-02-17T08:53:02;98673.22;;;8.69;87.31
9423;BME280;65863;49.506;10.400;2023-02-17T08:55:46;98654.47;;;8.64;87.19
9423;BME280;65863;49.506;10.400;2023-02-17T08:58:30;98666.13;;;8.68;87.16
9423;BME280;65863;49.506;10.400;2023-02-17T09:01:15;98643.97;;;8.45;87.12
9423;BME280;65863;49.506;10.400;2023-02-17T09:04:03;98682.63;;;8.71;87.26
9423;BME280;65863;49.506;10.400;2023-02-17T09:06:50;98674.47;;;8.73;87.32
9423;BME280;65863;49.506;10.400;2023-02-17T09:09:35;98679.75;;;8.77;87.18
9423;BME280;65863;49.506;10.400;2023-02-17T09:12:19;98658.06;;;8.58;87.26
9423;BME280;65863;49.506;10.400;2023-02-17T09:15:03;98658.31;;;8.60;87.12
9423;BME280;65863;49.506;10.400;2023-02-17T09:17:47;98650.47;;;8.53;87.27
9423;BME280;65863;49.506;10.400;2023-02-17T09:20:31;98667.41;;;8.67;87.09
9423;BME280;65863;49.506;10.400;2023-02-17T09:23:16;98682.56;;;8.77;87.47
9423;BME280;65863;49.506;10.400;2023-02-17T09:26:02;98681.16;;;8.89;87.62
9423;BME280;65863;49.506;10.400;2023-02-17T09:28:48;98613.66;;;8.49;87.12
9423;BME280;65863;49.506;10.400;2023-02-17T09:31:33;98681.03;;;9.01;87.44
9423;BME280;65863;49.506;10.400;2023-02-17T09:34:18;98675.84;;;8.86;87.48
9423;BME280;65863;49.506;10.400;2023-02-17T09:37:02;98690.13;;;9.07;87.14
9423;BME280;65863;49.506;10.400;2023-02-17T09:39:47;98663.63;;;8.89;87.21
9423;BME280;65863;49.506;10.400;2023-02-17T09:42:35;98659.91;;;9.00;87.15
9423;BME280;65863;49.506;10.400;2023-02-17T09:45:25;98638.72;;;9.04;86.55
9423;BME280;65863;49.506;10.400;2023-02-17T09:48:12;98681.25;;;9.27;86.21
9423;BME280;65863;49.506;10.400;2023-02-17T09:51:03;98685.09;;;9.43;86.06
9423;BME280;65863;49.506;10.400;2023-02-17T09:56:53;98674.97;;;9.40;85.23
9423;BME280;65863;49.506;10.400;2023-02-17T09:59:44;98675.81;;;9.54;84.94
9423;BME280;65863;49.506;10.400;2023-02-17T10:02:45;98658.81;;;9.46;84.85
9423;BME280;65863;49.506;10.400;2023-02-17T10:05:38;98670.66;;;9.58;84.68
9423;BME280;65863;49.506;10.400;2023-02-17T10:08:31;98649.59;;;9.52;84.37
9423;BME280;65863;49.506;10.400;2023-02-17T10:11:29;98669.97;;;9.71;84.14
9423;BME280;65863;49.506;10.400;2023-02-17T10:14:34;98668.28;;;9.62;83.79
9423;BME280;65863;49.506;10.400;2023-02-17T10:20:54;98657.31;;;9.64;84.04
9423;BME280;65863;49.506;10.400;2023-02-17T10:23:39;98673.50;;;9.72;83.79
9423;BME280;65863;49.506;10.400;2023-02-17T10:30:10;98684.50;;;9.89;83.51
9423;BME280;65863;49.506;10.400;2023-02-17T10:33:17;98674.44;;;9.80;83.56
9423;BME280;65863;49.506;10.400;2023-02-17T10:39:13;98667.44;;;9.68;83.66
9423;BME280;65863;49.506;10.400;2023-02-17T10:41:58;98642.38;;;9.56;83.70
9423;BME280;65863;49.506;10.400;2023-02-17T10:44:43;98599.59;;;9.37;83.57
9423;BME280;65863;49.506;10.400;2023-02-17T10:47:26;98643.75;;;9.69;83.66
9423;BME280;65863;49.506;10.400;2023-02-17T10:50:20;98644.84;;;9.79;83.63
9423;BME280;65863;49.506;10.400;2023-02-17T10:53:17;98648.69;;;9.95;83.47
9423;BME280;65863;49.506;10.400;2023-02-17T10:59:05;98680.53;;;9.97;82.92
9423;BME280;65863;49.506;10.400;2023-02-17T11:01:50;98643.22;;;9.70;82.99
9423;BME280;65863;49.506;10.400;2023-02-17T11:04:42;98659.28;;;9.70;83.18
9423;BME280;65863;49.506;10.400;2023-02-17T11:07:35;98660.31;;;9.67;83.49
9423;BME280;65863;49.506;10.400;2023-02-17T11:13:28;98644.44;;;9.56;83.72
9423;BME280;65863;49.506;10.400;2023-02-17T11:16:26;98674.72;;;9.76;83.94
9423;BME280;65863;49.506;10.400;2023-02-17T11:19:23;98639.13;;;9.52;84.16
9423;BME280;65863;49.506;10.400;2023-02-17T11:22:37;98672.53;;;9.69;84.57
9423;BME280;65863;49.506;10.400;2023-02-17T11:25:28;98665.56;;;9.76;84.77
9423;BME280;65863;49.506;10.400;2023-02-17T11:28:13;98638.75;;;9.61;84.79
9423;BME280;65863;49.506;10.400;2023-02-17T11:30:58;98653.22;;;9.65;85.14
9423;BME280;65863;49.506;10.400;2023-02-17T11:33:45;98638.50;;;9.59;85.44
9423;BME280;65863;49.506;10.400;2023-02-17T11:36:29;98664.13;;;9.69;85.74
9423;BME280;65863;49.506;10.400;2023-02-17T11:39:19;98661.72;;;9.60;86.11
9423;BME280;65863;49.506;10.400;2023-02-17T11:42:21;98650.19;;;9.63;86.50
9423;BME280;65863;49.506;10.400;2023-02-17T11:45:17;98636.94;;;9.45;86.68
9423;BME280;65863;49.506;10.400;2023-02-17T11:51:53;98656.91;;;9.74;87.20
9423;BME280;65863;49.506;10.400;2023-02-17T11:58:12;98657.75;;;9.69;87.67
9423;BME280;65863;49.506;10.400;2023-02-17T12:01:37;98675.19;;;9.61;87.75
9423;BME280;65863;49.506;10.400;2023-02-17T12:04:32;98639.06;;;9.39;87.68
9423;BME280;65863;49.506;10.400;2023-02-17T12:10:36;98656.84;;;9.60;87.85
9423;BME280;65863;49.506;10.400;2023-02-17T12:13:50;98640.03;;;9.60;87.83
9423;BME280;65863;49.506;10.400;2023-02-17T12:16:40;98651.91;;;9.67;87.82
9423;BME280;65863;49.506;10.400;2023-02-17T12:22:41;98655.94;;;9.71;87.57
9423;BME280;65863;49.506;10.400;2023-02-17T12:25:52;98665.31;;;9.74;87.50
9423;BME280;65863;49.506;10.400;2023-02-17T12:32:39;98667.16;;;9.71;87.67
9423;BME280;65863;49.506;10.400;2023-02-17T12:35:48;98659.19;;;9.75;87.58
9423;BME280;65863;49.506;10.400;2023-02-17T12:38:42;98654.34;;;9.76;87.74
9423;BME280;65863;49.506;10.400;2023-02-17T12:41:36;98650.47;;;9.79;87.72
9423;BME280;65863;49.506;10.400;2023-02-17T12:44:27;98663.22;;;9.80;87.62
9423;BME280;65863;49.506;10.400;2023-02-17T12:47:20;98586.13;;;9.16;87.35
9423;BME280;65863;49.506;10.400;2023-02-17T12:50:38;98630.63;;;9.58;87.44
9423;BME280;65863;49.506;10.400;2023-02-17T12:53:38;98631.09;;;9.62;87.30
9423;BME280;65863;49.506;10.400;2023-02-17T12:59:15;98584.75;;;9.42;87.62
9423;BME280;65863;49.506;10.400;2023-02-17T13:02:03;98600.13;;;9.54;87.41
9423;BME280;65863;49.506;10.400;2023-02-17T13:04:52;98592.16;;;9.58;87.19
9423;BME280;65863;49.506;10.400;2023-02-17T13:07:59;98633.47;;;9.90;87.16
9423;BME280;65863;49.506;10.400;2023-02-17T13:10:44;98558.72;;;9.47;87.19
9423;BME280;65863;49.506;10.400;2023-02-17T13:13:31;98618.38;;;9.93;86.85
9423;BME280;65863;49.506;10.400;2023-02-17T13:16:15;98583.34;;;9.68;86.84
9423;BME280;65863;49.506;10.400;2023-02-17T13:19:06;98617.09;;;9.94;86.78
9423;BME280;65863;49.506;10.400;2023-02-17T13:21:52;98583.94;;;9.79;86.65
9423;BME280;65863;49.506;10.400;2023-02-17T13:24:49;98602.16;;;10.05;86.79
9423;BME280;65863;49.506;10.400;2023-02-17T13:27:36;98598.38;;;10.16;86.63
9423;BME280;65863;49.506;10.400;2023-02-17T13:33:27;98572.47;;;10.10;85.97
9423;BME280;65863;49.506;10.400;2023-02-17T13:36:16;98582.41;;;10.24;85.74
9423;BME280;65863;49.506;10.400;2023-02-17T13:39:04;98563.72;;;10.13;85.63
9423;BME280;65863;49.506;10.400;2023-02-17T13:41:52;98589.72;;;10.60;85.39
9423;BME280;65863;49.506;10.400;2023-02-17T13:44:40;98583.44;;;10.67;85.05
9423;BME280;65863;49.506;10.400;2023-02-17T13:47:32;98585.47;;;10.80;84.69
9423;BME280;65863;49.506;10.400;2023-02-17T13:56:11;98545.88;;;10.43;83.66
9423;BME280;65863;49.506;10.400;2023-02-17T13:59:08;98534.94;;;10.26;83.76
9423;BME280;65863;49.506;10.400;2023-02-17T14:01:53;98580.66;;;10.54;83.50
9423;BME280;65863;49.506;10.400;2023-02-17T14:04:37;98585.72;;;10.68;83.85
9423;BME280;65863;49.506;10.400;2023-02-17T14:07:21;98555.38;;;10.40;83.96
9423;BME280;65863;49.506;10.400;2023-02-17T14:10:16;98562.81;;;10.51;83.69
9423;BME280;65863;49.506;10.400;2023-02-17T14:13:01;98571.34;;;10.59;83.75
9423;BME280;65863;49.506;10.400;2023-02-17T14:15:51;98577.72;;;10.73;84.03
9423;BME280;65863;49.506;10.400;2023-02-17T14:18:39;98578.38;;;10.79;83.97
9423;BME280;65863;49.506;10.400;2023-02-17T14:21:25;98538.84;;;10.63;84.19
9423;BME280;65863;49.506;10.400;2023-02-17T14:24:26;98579.97;;;10.88;83.87
9423;BME280;65863;49.506;10.400;2023-02-17T14:27:10;98574.59;;;10.76;83.68
9423;BME280;65863;49.506;10.400;2023-02-17T14:29:56;98538.53;;;10.67;83.61
9423;BME280;65863;49.506;10.400;2023-02-17T14:32:40;98542.97;;;10.62;83.66
9423;BME280;65863;49.506;10.400;2023-02-17T14:35:24;98530.00;;;10.59;83.85
9423;BME280;65863;49.506;10.400;2023-02-17T14:38:39;98564.97;;;10.85;83.80
9423;BME280;65863;49.506;10.400;2023-02-17T14:41:24;98571.56;;;10.88;83.48
9423;BME280;65863;49.506;10.400;2023-02-17T14:44:08;98553.41;;;10.75;83.83
9423;BME280;65863;49.506;10.400;2023-02-17T14:46:54;98528.91;;;10.62;83.94
9423;BME280;65863;49.506;10.400;2023-02-17T14:49:38;98519.41;;;10.65;83.92
9423;BME280;65863;49.506;10.400;2023-02-17T14:52:23;98539.28;;;10.67;83.89
9423;BME280;65863;49.506;10.400;2023-02-17T14:55:18;98553.09;;;10.79;83.97
9423;BME280;65863;49.506;10.400;2023-02-17T14:58:04;98540.38;;;10.51;83.98
9423;BME280;65863;49.506;10.400;2023-02-17T15:00:49;98553.56;;;10.56;84.28
9423;BME280;65863;49.506;10.400;2023-02-17T15:03:33;98537.88;;;10.47;84.68
9423;BME280;65863;49.506;10.400;2023-02-17T15:06:24;98549.97;;;10.56;84.90
9423;BME280;65863;49.506;10.400;2023-02-17T15:09:13;98524.94;;;10.44;85.03
9423;BME280;65863;49.506;10.400;2023-02-17T15:11:58;98530.88;;;10.41;85.16
9423;BME280;65863;49.506;10.400;2023-02-17T15:14:42;98514.00;;;10.27;85.28
9423;BME280;65863;49.506;10.400;2023-02-17T15:17:27;98526.75;;;10.42;85.21
9423;BME280;65863;49.506;10.400;2023-02-17T15:20:12;98524.72;;;10.56;85.30
9423;BME280;65863;49.506;10.400;2023-02-17T15:22:57;98509.28;;;10.36;85.49
9423;BME280;65863;49.506;10.400;2023-02-17T15:25:42;98487.13;;;10.19;85.26
9423;BME280;65863;49.506;10.400;2023-02-17T15:28:26;98507.03;;;10.34;85.61
9423;BME280;65863;49.506;10.400;2023-02-17T15:31:12;98540.69;;;10.47;85.45
9423;BME280;65863;49.506;10.400;2023-02-17T15:33:59;98560.44;;;10.55;85.46
9423;BME280;65863;49.506;10.400;2023-02-17T15:36:43;98543.09;;;10.43;85.49
9423;BME280;65863;49.506;10.400;2023-02-17T15:39:27;98540.78;;;10.42;85.79
9423;BME280;65863;49.506;10.400;2023-02-17T15:42:12;98540.28;;;10.43;85.82
9423;BME280;65863;49.506;10.400;2023-02-17T15:44:56;98520.50;;;10.36;85.67
9423;BME280;65863;49.506;10.400;2023-02-17T15:47:41;98521.81;;;10.48;85.90
9423;BME280;65863;49.506;10.400;2023-02-17T15:50:24;98533.25;;;10.50;85.95
9423;BME280;65863;49.506;10.400;2023-02-17T15:53:09;98519.00;;;10.48;85.80
9423;BME280;65863;49.506;10.400;2023-02-17T15:55:52;98560.66;;;10.71;85.55
9423;BME280;65863;49.506;10.400;2023-02-17T15:58:36;98559.91;;;10.70;85.57
9423;BME280;65863;49.506;10.400;2023-02-17T16:01:28;98551.47;;;10.70;85.22